Time,TemperatureF,DewpointF,PressureIn,WindDirection,WindDirectionDegrees,WindSpeedMPH,WindSpeedGustMPH,Humidity,HourlyPrecipIn,Conditions,Clouds,dailyrainin,SoftwareType,DateUTC
2013-03-15 00:02:00,53.2,42.2,30.03,SSW,202,3.1,3.1,66,0.00,,,0.00,VWS V14.01,2013-03-15 07:02:00,
2013-03-15 00:07:00,53.2,42.2,30.03,SW,225,0.0,0.0,66,0.00,,,0.00,VWS V14.01,2013-03-15 07:07:00,
2013-03-15 00:12:00,53.2,42.2,30.03,SSW,202,3.6,3.6,66,0.00,,,0.00,VWS V14.01,2013-03-15 07:12:00,
2013-03-15 00:17:00,53.2,41.8,30.03,SSW,202,0.0,0.0,65,0.00,,,0.00,VWS V14.01,2013-03-15 07:17:00,
2013-03-15 00:23:00,53.1,41.6,30.03,SSW,202,2.7,2.7,65,0.00,,,0.00,VWS V14.01,2013-03-15 07:23:00,
2013-03-15 00:28:00,53.1,41.6,30.03,WSW,248,0.0,0.0,65,0.00,,,0.00,VWS V14.01,2013-03-15 07:28:00,
2013-03-15 00:33:00,52.9,41.5,30.03,SSW,202,2.2,2.7,65,0.00,,,0.00,VWS V14.01,2013-03-15 07:33:00,
2013-03-15 00:38:00,52.9,41.8,30.03,SW,225,2.7,3.1,66,0.00,,,0.00,VWS V14.01,2013-03-15 07:38:00,
2013-03-15 00:43:00,52.7,41.7,30.03,SSW,202,0.0,2.7,66,0.00,,,0.00,VWS V14.01,2013-03-15 07:43:00,
2013-03-15 00:48:00,52.5,41.9,30.00,SW,225,2.7,2.7,67,0.00,,,0.00,VWS V14.01,2013-03-15 07:48:00,
2013-03-15 00:54:00,52.3,41.7,30.00,SSW,202,0.0,3.1,67,0.00,,,0.00,VWS V14.01,2013-03-15 07:54:00,
2013-03-15 00:59:00,52.3,42.1,30.00,SW,225,0.0,2.7,68,0.00,,,0.00,VWS V14.01,2013-03-15 07:59:00,
2013-03-15 01:04:00,52.2,41.9,30.03,SW,225,0.0,0.0,68,0.00,,,0.00,VWS V14.01,2013-03-15 08:04:00,
2013-03-15 01:09:00,52.3,42.1,30.03,SW,225,0.0,0.0,68,0.00,,,0.00,VWS V14.01,2013-03-15 08:09:00,
2013-03-15 01:15:00,52.5,42.7,30.03,SSW,202,3.1,3.6,69,0.00,,,0.00,VWS V14.01,2013-03-15 08:15:00,
2013-03-15 01:20:00,52.5,42.3,30.00,South,180,0.0,2.2,68,0.00,,,0.00,VWS V14.01,2013-03-15 08:20:00,
2013-03-15 01:25:00,52.7,42.1,30.00,SSW,202,3.1,3.1,67,0.00,,,0.00,VWS V14.01,2013-03-15 08:25:00,
2013-03-15 01:31:00,52.7,42.1,30.00,SSE,158,3.6,3.6,67,0.00,,,0.00,VWS V14.01,2013-03-15 08:31:00,
2013-03-15 01:36:00,52.5,41.9,30.03,SSW,202,5.4,6.3,67,0.00,,,0.00,VWS V14.01,2013-03-15 08:36:00,
2013-03-15 01:41:00,52.3,42.1,30.03,SSE,158,5.8,6.3,68,0.00,,,0.00,VWS V14.01,2013-03-15 08:41:00,
2013-03-15 01:46:00,52.0,42.1,30.03,SW,225,5.4,5.4,69,0.00,,,0.00,VWS V14.01,2013-03-15 08:46:00,
2013-03-15 01:51:00,51.8,42.7,30.03,WSW,248,0.0,4.0,71,0.00,,,0.00,VWS V14.01,2013-03-15 08:51:00,
2013-03-15 01:56:00,51.6,42.9,30.03,South,180,4.0,4.0,72,0.00,,,0.00,VWS V14.01,2013-03-15 08:56:00,
2013-03-15 02:01:00,51.6,43.3,30.00,SSE,158,2.2,6.3,73,0.00,,,0.00,VWS V14.01,2013-03-15 09:01:00,
2013-03-15 02:06:00,51.6,43.3,30.00,SSE,158,4.9,7.2,73,0.00,,,0.00,VWS V14.01,2013-03-15 09:06:00,
2013-03-15 02:12:00,51.6,43.6,30.00,SW,225,0.0,3.6,74,0.00,,,0.00,VWS V14.01,2013-03-15 09:12:00,
2013-03-15 02:17:00,51.6,43.6,30.00,South,180,3.1,3.1,74,0.00,,,0.00,VWS V14.01,2013-03-15 09:17:00,
2013-03-15 02:22:00,51.6,43.6,30.00,SSW,202,0.0,3.1,74,0.00,,,0.00,VWS V14.01,2013-03-15 09:22:00,
2013-03-15 02:27:00,51.6,43.6,30.00,SSW,202,0.0,0.0,74,0.00,,,0.00,VWS V14.01,2013-03-15 09:27:00,
2013-03-15 02:32:00,51.4,43.1,30.00,SSW,202,0.0,0.0,73,0.00,,,0.00,VWS V14.01,2013-03-15 09:32:00,
2013-03-15 02:37:00,51.6,43.6,30.00,SSW,202,0.0,0.0,74,0.00,,,0.00,VWS V14.01,2013-03-15 09:37:00,
2013-03-15 02:43:00,51.8,43.4,30.00,North,0,0.0,2.2,73,0.00,,,0.00,VWS V14.01,2013-03-15 09:43:00,
2013-03-15 02:48:00,51.8,43.1,30.00,NW,315,0.0,0.0,72,0.00,,,0.00,VWS V14.01,2013-03-15 09:48:00,
2013-03-15 02:53:00,52.0,42.9,30.00,NNW,338,0.0,2.7,71,0.00,,,0.00,VWS V14.01,2013-03-15 09:53:00,
2013-03-15 02:59:00,52.0,42.9,30.00,NNW,338,2.2,2.2,71,0.00,,,0.00,VWS V14.01,2013-03-15 09:59:00,
2013-03-15 03:04:00,52.0,42.5,30.00,NNW,338,3.6,3.6,70,0.00,,,0.00,VWS V14.01,2013-03-15 10:04:00,
2013-03-15 03:09:00,52.0,42.5,30.00,NNW,338,0.0,2.7,70,0.00,,,0.00,VWS V14.01,2013-03-15 10:09:00,
2013-03-15 03:14:00,52.2,43.1,30.00,North,0,0.0,0.0,71,0.00,,,0.00,VWS V14.01,2013-03-15 10:14:00,
2013-03-15 03:19:00,52.2,42.7,30.00,North,0,0.0,2.7,70,0.00,,,0.00,VWS V14.01,2013-03-15 10:19:00,
2013-03-15 03:25:00,52.0,42.5,30.00,North,0,0.0,0.0,70,0.00,,,0.00,VWS V14.01,2013-03-15 10:25:00,
2013-03-15 03:30:00,52.0,42.5,30.00,North,0,0.0,0.0,70,0.00,,,0.00,VWS V14.01,2013-03-15 10:30:00,
2013-03-15 03:35:00,51.8,42.3,30.00,North,0,0.0,0.0,70,0.00,,,0.00,VWS V14.01,2013-03-15 10:35:00,
2013-03-15 03:40:00,52.0,42.5,30.00,SE,135,2.2,2.2,70,0.00,,,0.00,VWS V14.01,2013-03-15 10:40:00,
2013-03-15 03:45:00,52.0,42.5,30.00,South,180,0.0,0.0,70,0.00,,,0.00,VWS V14.01,2013-03-15 10:45:00,
2013-03-15 03:51:00,51.8,42.3,30.00,South,180,0.0,0.0,70,0.00,,,0.00,VWS V14.01,2013-03-15 10:51:00,
2013-03-15 03:56:00,52.0,42.5,30.00,SSW,202,2.2,3.1,70,0.00,,,0.00,VWS V14.01,2013-03-15 10:56:00,
2013-03-15 04:02:00,52.3,42.9,30.00,East,90,2.2,3.6,70,0.00,,,0.00,VWS V14.01,2013-03-15 11:02:00,
2013-03-15 04:08:00,52.3,42.9,30.00,ESE,112,3.1,3.6,70,0.00,,,0.00,VWS V14.01,2013-03-15 11:08:00,
2013-03-15 04:13:00,52.3,42.5,30.00,ESE,112,0.0,2.7,69,0.00,,,0.00,VWS V14.01,2013-03-15 11:13:00,
2013-03-15 04:18:00,52.3,42.5,30.00,ESE,112,3.6,4.0,69,0.00,,,0.00,VWS V14.01,2013-03-15 11:18:00,
2013-03-15 04:24:00,52.3,42.5,30.00,ESE,112,3.6,3.6,69,0.00,,,0.00,VWS V14.01,2013-03-15 11:24:00,
2013-03-15 04:29:00,52.5,42.7,30.00,East,90,3.1,3.1,69,0.00,,,0.00,VWS V14.01,2013-03-15 11:29:00,
2013-03-15 04:34:00,52.5,42.7,29.97,ESE,112,2.7,3.1,69,0.00,,,0.00,VWS V14.01,2013-03-15 11:34:00,
2013-03-15 04:39:00,52.5,42.7,29.97,ESE,112,0.0,0.0,69,0.00,,,0.00,VWS V14.01,2013-03-15 11:39:00,
2013-03-15 04:44:00,52.3,42.5,29.97,NNE,22,0.0,2.7,69,0.00,,,0.00,VWS V14.01,2013-03-15 11:44:00,
2013-03-15 04:50:00,52.3,42.9,30.00,NNW,338,3.1,3.1,70,0.00,,,0.00,VWS V14.01,2013-03-15 11:50:00,
2013-03-15 04:55:00,52.2,43.1,30.00,NNW,338,2.7,3.6,71,0.00,,,0.00,VWS V14.01,2013-03-15 11:55:00,
2013-03-15 05:00:00,52.0,43.2,30.00,NW,315,2.2,3.6,72,0.00,,,0.00,VWS V14.01,2013-03-15 12:00:00,
2013-03-15 05:05:00,52.0,43.2,30.00,North,0,0.0,3.1,72,0.00,,,0.00,VWS V14.01,2013-03-15 12:05:00,
2013-03-15 05:11:00,52.0,43.6,30.00,NNW,338,3.1,3.1,73,0.00,,,0.00,VWS V14.01,2013-03-15 12:11:00,
2013-03-15 05:16:00,52.0,43.6,30.00,NNW,338,0.0,2.7,73,0.00,,,0.00,VWS V14.01,2013-03-15 12:16:00,
2013-03-15 05:22:00,52.0,43.6,30.00,NNW,338,0.0,2.2,73,0.00,,,0.00,VWS V14.01,2013-03-15 12:22:00,
2013-03-15 05:27:00,51.8,43.4,30.00,NNW,338,0.0,0.0,73,0.00,,,0.00,VWS V14.01,2013-03-15 12:27:00,
2013-03-15 05:33:00,51.8,43.8,30.00,South,180,0.0,0.0,74,0.00,,,0.00,VWS V14.01,2013-03-15 12:33:00,
2013-03-15 05:38:00,52.0,43.6,30.00,SE,135,0.0,0.0,73,0.00,,,0.00,VWS V14.01,2013-03-15 12:38:00,
2013-03-15 05:43:00,51.8,43.4,30.00,SSW,202,3.1,4.9,73,0.00,,,0.00,VWS V14.01,2013-03-15 12:43:00,
2013-03-15 05:48:00,51.8,43.1,29.97,WNW,292,0.0,2.2,72,0.00,,,0.00,VWS V14.01,2013-03-15 12:48:00,
2013-03-15 05:53:00,51.8,42.7,29.97,SW,225,0.0,2.7,71,0.00,,,0.00,VWS V14.01,2013-03-15 12:53:00,
2013-03-15 05:59:00,51.8,42.3,29.97,SSE,158,0.0,0.0,70,0.00,,,0.00,VWS V14.01,2013-03-15 12:59:00,
2013-03-15 06:04:00,51.8,42.0,29.97,SSE,158,2.7,2.7,69,0.00,,,0.00,VWS V14.01,2013-03-15 13:04:00,
2013-03-15 06:09:00,52.0,42.1,29.97,SSW,202,0.0,2.7,69,0.00,,,0.00,VWS V14.01,2013-03-15 13:09:00,
2013-03-15 06:14:00,52.0,42.1,29.97,SW,225,0.0,0.0,69,0.00,,,0.00,VWS V14.01,2013-03-15 13:14:00,
2013-03-15 06:20:00,52.0,42.1,29.97,SSW,202,2.7,2.7,69,0.00,,,0.00,VWS V14.01,2013-03-15 13:20:00,
2013-03-15 06:25:00,52.2,42.7,29.97,South,180,2.7,2.7,70,0.00,,,0.00,VWS V14.01,2013-03-15 13:25:00,
2013-03-15 06:30:00,52.2,42.7,29.97,SE,135,2.7,4.0,70,0.00,,,0.00,VWS V14.01,2013-03-15 13:30:00,
2013-03-15 06:35:00,52.2,42.7,30.00,SSW,202,4.0,4.0,70,0.00,,,0.00,VWS V14.01,2013-03-15 13:35:00,
2013-03-15 06:40:00,52.2,42.7,30.00,SSW,202,2.7,3.1,70,0.00,,,0.00,VWS V14.01,2013-03-15 13:40:00,
2013-03-15 06:46:00,52.3,42.5,30.00,NE,45,2.2,2.7,69,0.00,,,0.00,VWS V14.01,2013-03-15 13:46:00,
2013-03-15 06:51:00,52.3,42.5,30.00,NNW,338,2.2,4.0,69,0.00,,,0.00,VWS V14.01,2013-03-15 13:51:00,
2013-03-15 06:56:00,52.2,42.3,30.00,NNE,22,2.7,3.1,69,0.00,,,0.00,VWS V14.01,2013-03-15 13:56:00,
2013-03-15 07:01:00,52.2,42.3,30.00,NW,315,0.0,2.2,69,0.00,,,0.00,VWS V14.01,2013-03-15 14:01:00,
2013-03-15 07:06:00,52.0,42.1,30.00,NNW,338,0.0,2.2,69,0.00,,,0.00,VWS V14.01,2013-03-15 14:06:00,
2013-03-15 07:12:00,52.2,42.3,30.00,North,0,0.0,2.7,69,0.00,,,0.00,VWS V14.01,2013-03-15 14:12:00,
2013-03-15 07:17:00,52.2,42.3,30.00,NNW,338,2.7,3.1,69,0.00,,,0.00,VWS V14.01,2013-03-15 14:17:00,
2013-03-15 07:23:00,52.3,42.9,30.00,NNW,338,4.0,4.0,70,0.00,,,0.00,VWS V14.01,2013-03-15 14:23:00,
2013-03-15 07:28:00,52.3,43.2,30.00,NNE,22,2.2,3.1,71,0.00,,,0.00,VWS V14.01,2013-03-15 14:28:00,
2013-03-15 07:33:00,52.5,43.8,30.00,ENE,68,2.2,2.2,72,0.00,,,0.00,VWS V14.01,2013-03-15 14:33:00,
2013-03-15 07:38:00,52.5,44.1,30.00,North,0,3.1,3.6,73,0.00,,,0.00,VWS V14.01,2013-03-15 14:38:00,
2013-03-15 07:43:00,52.5,44.1,30.00,North,0,0.0,0.0,73,0.00,,,0.00,VWS V14.01,2013-03-15 14:43:00,
2013-03-15 07:48:00,52.7,44.3,30.00,NNW,338,3.6,4.0,73,0.00,,,0.00,VWS V14.01,2013-03-15 14:48:00,
2013-03-15 07:54:00,52.7,44.7,30.00,NW,315,2.7,2.7,74,0.00,,,0.00,VWS V14.01,2013-03-15 14:54:00,
2013-03-15 07:59:00,52.7,44.7,30.00,ESE,112,3.6,3.6,74,0.00,,,0.00,VWS V14.01,2013-03-15 14:59:00,
2013-03-15 08:05:00,52.7,44.3,30.00,ESE,112,3.1,3.1,73,0.00,,,0.00,VWS V14.01,2013-03-15 15:05:00,
2013-03-15 08:10:00,52.9,44.8,30.00,NNE,22,0.0,3.6,74,0.00,,,0.00,VWS V14.01,2013-03-15 15:10:00,
2013-03-15 08:15:00,53.1,44.7,30.00,ESE,112,3.6,3.6,73,0.00,,,0.00,VWS V14.01,2013-03-15 15:15:00,
2013-03-15 08:20:00,53.2,44.8,30.00,ESE,112,4.0,4.0,73,0.00,,,0.00,VWS V14.01,2013-03-15 15:20:00,
2013-03-15 08:25:00,53.4,45.0,30.00,ENE,68,3.1,3.1,73,0.00,,,0.00,VWS V14.01,2013-03-15 15:25:00,
2013-03-15 08:31:00,53.6,44.8,30.00,SE,135,3.1,5.4,72,0.00,,,0.00,VWS V14.01,2013-03-15 15:31:00,
2013-03-15 08:37:00,53.8,45.0,29.97,East,90,3.6,5.4,72,0.00,,,0.00,VWS V14.01,2013-03-15 15:37:00,
2013-03-15 08:42:00,53.8,44.6,29.97,ESE,112,2.7,4.0,71,0.00,,,0.00,VWS V14.01,2013-03-15 15:42:00,
2013-03-15 08:48:00,53.8,44.2,30.00,WNW,292,3.1,3.1,70,0.00,,,0.00,VWS V14.01,2013-03-15 15:48:00,
2013-03-15 08:53:00,54.1,44.6,30.00,ESE,112,2.7,2.7,70,0.00,,,0.00,VWS V14.01,2013-03-15 15:53:00,
2013-03-15 08:58:00,54.5,44.5,30.00,NNW,338,3.6,3.6,69,0.00,,,0.00,VWS V14.01,2013-03-15 15:58:00,
2013-03-15 09:04:00,54.5,44.2,30.00,North,0,0.0,0.0,68,0.00,,,0.00,VWS V14.01,2013-03-15 16:04:00,
2013-03-15 09:09:00,54.9,44.5,30.00,NNW,338,0.0,0.0,68,0.00,,,0.00,VWS V14.01,2013-03-15 16:09:00,
2013-03-15 09:14:00,54.9,44.1,30.00,NE,45,3.1,4.0,67,0.00,,,0.00,VWS V14.01,2013-03-15 16:14:00,
2013-03-15 09:19:00,55.2,44.5,30.00,NNE,22,4.9,4.9,67,0.00,,,0.00,VWS V14.01,2013-03-15 16:19:00,
2013-03-15 09:24:00,55.2,44.5,30.00,North,0,2.7,3.6,67,0.00,,,0.00,VWS V14.01,2013-03-15 16:24:00,
2013-03-15 09:29:00,55.0,44.3,30.00,NNW,338,3.1,3.6,67,0.00,,,0.00,VWS V14.01,2013-03-15 16:29:00,
2013-03-15 09:34:00,55.0,44.7,30.00,NNE,22,3.6,6.3,68,0.00,,,0.00,VWS V14.01,2013-03-15 16:34:00,
2013-03-15 09:39:00,54.9,44.9,30.00,NNW,338,2.2,2.7,69,0.00,,,0.00,VWS V14.01,2013-03-15 16:39:00,
2013-03-15 09:45:00,55.0,45.1,30.00,NNE,22,2.2,2.2,69,0.00,,,0.00,VWS V14.01,2013-03-15 16:45:00,
2013-03-15 09:50:00,55.4,45.0,30.03,North,0,3.1,3.6,68,0.00,,,0.00,VWS V14.01,2013-03-15 16:50:00,
2013-03-15 09:55:00,55.6,45.2,30.03,NNW,338,2.7,3.1,68,0.00,,,0.00,VWS V14.01,2013-03-15 16:55:00,
2013-03-15 10:00:00,55.6,45.2,30.03,NNW,338,2.7,2.7,68,0.00,,,0.00,VWS V14.01,2013-03-15 17:00:00,
2013-03-15 10:06:00,55.9,45.2,30.03,NNE,22,2.7,4.0,67,0.00,,,0.00,VWS V14.01,2013-03-15 17:06:00,
2013-03-15 10:11:00,56.1,44.9,30.03,NNE,22,3.1,3.1,66,0.00,,,0.00,VWS V14.01,2013-03-15 17:11:00,
2013-03-15 10:16:00,56.7,45.0,30.03,NNE,22,0.0,0.0,65,0.00,,,0.00,VWS V14.01,2013-03-15 17:16:00,
2013-03-15 10:22:00,56.7,44.2,30.03,NNW,338,2.2,2.7,63,0.00,,,0.00,VWS V14.01,2013-03-15 17:22:00,
2013-03-15 10:27:00,56.8,43.1,30.03,NNE,22,3.1,4.0,60,0.00,,,0.00,VWS V14.01,2013-03-15 17:27:00,
2013-03-15 10:33:00,57.4,43.2,30.03,NNE,22,4.0,4.0,59,0.00,,,0.00,VWS V14.01,2013-03-15 17:33:00,
2013-03-15 10:38:00,57.4,42.3,30.03,NNE,22,3.1,4.0,57,0.00,,,0.00,VWS V14.01,2013-03-15 17:38:00,
2013-03-15 10:43:00,57.6,42.0,30.03,NNW,338,3.1,3.1,56,0.00,,,0.00,VWS V14.01,2013-03-15 17:43:00,
2013-03-15 10:49:00,57.9,42.3,30.03,NNW,338,0.0,3.1,56,0.00,,,0.00,VWS V14.01,2013-03-15 17:49:00,
2013-03-15 10:54:00,58.1,43.0,30.03,North,0,3.1,3.1,57,0.00,,,0.00,VWS V14.01,2013-03-15 17:54:00,
2013-03-15 10:59:00,58.3,43.1,30.03,NNW,338,3.6,5.4,57,0.00,,,0.00,VWS V14.01,2013-03-15 17:59:00,
2013-03-15 11:04:00,57.9,42.3,30.03,NNE,22,3.1,4.0,56,0.00,,,0.00,VWS V14.01,2013-03-15 18:04:00,
2013-03-15 11:09:00,57.9,41.4,30.03,North,0,3.6,3.6,54,0.00,,,0.00,VWS V14.01,2013-03-15 18:09:00,
2013-03-15 11:14:00,57.6,39.6,30.03,NNW,338,4.0,4.0,51,0.00,,,0.00,VWS V14.01,2013-03-15 18:14:00,
2013-03-15 11:20:00,57.6,40.6,30.03,NNW,338,2.7,3.6,53,0.00,,,0.00,VWS V14.01,2013-03-15 18:20:00,
2013-03-15 11:25:00,57.7,41.7,30.03,NNW,338,3.1,3.6,55,0.00,,,0.00,VWS V14.01,2013-03-15 18:25:00,
2013-03-15 11:30:00,57.7,41.7,30.03,NNW,338,2.7,4.9,55,0.00,,,0.00,VWS V14.01,2013-03-15 18:30:00,
2013-03-15 11:35:00,57.7,41.7,30.03,North,0,4.0,4.0,55,0.00,,,0.00,VWS V14.01,2013-03-15 18:35:00,
2013-03-15 11:40:00,57.6,41.5,30.03,North,0,4.0,4.9,55,0.00,,,0.00,VWS V14.01,2013-03-15 18:40:00,
2013-03-15 11:46:00,57.6,41.5,30.03,NNW,338,4.0,4.0,55,0.00,,,0.00,VWS V14.01,2013-03-15 18:46:00,
2013-03-15 11:51:00,57.6,42.5,30.03,NW,315,4.0,4.0,57,0.00,,,0.00,VWS V14.01,2013-03-15 18:51:00,
2013-03-15 11:57:00,57.6,42.9,30.03,NNW,338,4.9,4.9,58,0.00,,,0.00,VWS V14.01,2013-03-15 18:57:00,
2013-03-15 12:02:00,57.7,43.1,30.00,NNW,338,3.1,4.9,58,0.00,,,0.00,VWS V14.01,2013-03-15 19:02:00,
2013-03-15 12:08:00,57.9,43.2,30.00,NNW,338,4.9,4.9,58,0.00,,,0.00,VWS V14.01,2013-03-15 19:08:00,
2013-03-15 12:13:00,58.3,43.1,30.00,NNW,338,4.0,4.9,57,0.00,,,0.00,VWS V14.01,2013-03-15 19:13:00,
2013-03-15 12:18:00,58.8,42.7,30.00,NNW,338,3.6,4.0,55,0.00,,,0.00,VWS V14.01,2013-03-15 19:18:00,
2013-03-15 12:24:00,59.4,42.2,30.00,NNW,338,3.6,4.0,53,0.00,,,0.00,VWS V14.01,2013-03-15 19:24:00,
2013-03-15 12:29:00,59.5,41.9,30.00,NNW,338,3.1,5.8,52,0.00,,,0.00,VWS V14.01,2013-03-15 19:29:00,
2013-03-15 12:34:00,59.7,41.6,30.00,NNW,338,4.0,4.9,51,0.00,,,0.00,VWS V14.01,2013-03-15 19:34:00,
2013-03-15 12:39:00,60.1,41.9,30.00,NNW,338,3.1,4.0,51,0.00,,,0.00,VWS V14.01,2013-03-15 19:39:00,
2013-03-15 12:44:00,60.1,41.9,30.00,NNW,338,3.1,3.1,51,0.00,,,0.00,VWS V14.01,2013-03-15 19:44:00,
2013-03-15 12:50:00,60.3,42.1,30.00,NNW,338,4.9,4.9,51,0.00,,,0.00,VWS V14.01,2013-03-15 19:50:00,
2013-03-15 12:55:00,60.1,41.9,30.00,NNW,338,3.1,4.5,51,0.00,,,0.00,VWS V14.01,2013-03-15 19:55:00,
2013-03-15 13:00:00,60.6,41.9,30.00,NNW,338,4.0,4.0,50,0.00,,,0.00,VWS V14.01,2013-03-15 20:00:00,
2013-03-15 13:06:00,61.0,41.7,30.00,North,0,3.6,3.6,49,0.00,,,0.00,VWS V14.01,2013-03-15 20:06:00,
2013-03-15 13:12:00,61.3,41.5,30.00,NNE,22,2.7,3.6,48,0.00,,,0.00,VWS V14.01,2013-03-15 20:12:00,
2013-03-15 13:17:00,61.9,41.5,30.00,NNW,338,3.6,3.6,47,0.00,,,0.00,VWS V14.01,2013-03-15 20:17:00,
2013-03-15 13:22:00,61.9,41.5,30.00,NNW,338,3.1,3.1,47,0.00,,,0.00,VWS V14.01,2013-03-15 20:22:00,
2013-03-15 13:28:00,62.4,41.4,30.00,NNW,338,3.1,3.1,46,0.00,,,0.00,VWS V14.01,2013-03-15 20:28:00,
2013-03-15 13:33:00,63.0,41.3,30.00,NNW,338,3.1,3.1,45,0.00,,,0.00,VWS V14.01,2013-03-15 20:33:00,
2013-03-15 13:38:00,63.7,42.0,30.00,NNW,338,3.6,3.6,45,0.00,,,0.00,VWS V14.01,2013-03-15 20:38:00,
2013-03-15 13:43:00,63.7,41.4,30.00,NNE,22,4.0,4.9,44,0.00,,,0.00,VWS V14.01,2013-03-15 20:43:00,
2013-03-15 13:48:00,63.3,40.5,30.00,North,0,2.7,3.1,43,0.00,,,0.00,VWS V14.01,2013-03-15 20:48:00,
2013-03-15 13:53:00,63.5,40.6,30.00,North,0,4.0,4.0,43,0.00,,,0.00,VWS V14.01,2013-03-15 20:53:00,
2013-03-15 13:58:00,63.7,41.4,30.00,NNE,22,3.6,4.0,44,0.00,,,0.00,VWS V14.01,2013-03-15 20:58:00,
2013-03-15 14:03:00,64.4,42.0,30.00,NNE,22,2.7,4.0,44,0.00,,,0.00,VWS V14.01,2013-03-15 21:03:00,
2013-03-15 14:08:00,65.5,43.0,30.00,NNE,22,0.0,0.0,44,0.00,,,0.00,VWS V14.01,2013-03-15 21:08:00,
2013-03-15 14:14:00,66.4,42.6,30.00,SSW,202,3.6,3.6,42,0.00,,,0.00,VWS V14.01,2013-03-15 21:14:00,
2013-03-15 14:20:00,66.7,41.7,30.00,ESE,112,5.4,5.4,40,0.00,,,0.00,VWS V14.01,2013-03-15 21:20:00,
2013-03-15 14:25:00,66.4,40.7,30.00,South,180,8.1,8.1,39,0.00,,,0.00,VWS V14.01,2013-03-15 21:25:00,
2013-03-15 14:30:00,66.6,40.9,30.00,SW,225,0.0,7.6,39,0.00,,,0.00,VWS V14.01,2013-03-15 21:30:00,
2013-03-15 14:35:00,67.5,41.0,30.00,SW,225,3.1,3.1,38,0.00,,,0.00,VWS V14.01,2013-03-15 21:35:00,
2013-03-15 14:41:00,67.8,40.6,30.00,NW,315,2.2,3.1,37,0.00,,,0.00,VWS V14.01,2013-03-15 21:41:00,
2013-03-15 14:46:00,68.2,40.2,30.00,South,180,0.0,2.7,36,0.00,,,0.00,VWS V14.01,2013-03-15 21:46:00,
2013-03-15 14:51:00,67.8,39.9,30.00,WSW,248,2.2,3.1,36,0.00,,,0.00,VWS V14.01,2013-03-15 21:51:00,
2013-03-15 15:03:00,63.0,39.5,30.00,SSW,202,5.4,8.1,42,0.00,,,0.00,VWS V14.01,2013-03-15 22:03:00,
2013-03-15 15:08:00,61.7,40.7,30.00,South,180,6.7,6.7,46,0.00,,,0.00,VWS V14.01,2013-03-15 22:08:00,
2013-03-15 15:13:00,61.7,40.7,30.00,SSW,202,0.0,4.0,46,0.00,,,0.00,VWS V14.01,2013-03-15 22:13:00,
2013-03-15 15:19:00,62.1,40.5,30.00,SSW,202,3.1,3.6,45,0.00,,,0.00,VWS V14.01,2013-03-15 22:19:00,
2013-03-15 15:24:00,62.6,41.0,30.00,SSE,158,4.0,4.0,45,0.00,,,0.00,VWS V14.01,2013-03-15 22:24:00,
2013-03-15 15:30:00,62.1,41.1,30.00,SSE,158,7.6,7.6,46,0.00,,,0.00,VWS V14.01,2013-03-15 22:30:00,
2013-03-15 15:35:00,61.3,40.4,29.97,East,90,2.7,4.0,46,0.00,,,0.00,VWS V14.01,2013-03-15 22:35:00,
2013-03-15 15:40:00,61.5,41.1,29.97,SSW,202,3.6,3.6,47,0.00,,,0.00,VWS V14.01,2013-03-15 22:40:00,